Tropical Cyclones
[Index]
Main Index Home Page Stock Weather Photos Extreme Storms Discussion Storm News and Storm Chasing Reports Tropical Cyclones / Hurricanes / Typhoons Weather Data and Links Wild Fires / Bushfires Weather Observation Techniques Weather Picture Catalogue Tornado Pictures and Reports Stock Video Footage and DVDs for sale
Season 2014-2015 Tropical Cyclone PAM Track Map
Season 2014-2015 Summaries: [BoM-AU] [JTWC-AU] [JTWC-SIO] [JTWC-SPAC] [JTWC-SH]
<<- Previous TC | JTWC 2014-2015 Season | Next TC ->>

click for intensity scale information  Lat/long Grid: Show Hide

 Date Labels: Show Hide

Joint Typhoon Warning Centre Cyclone Data

Name: PAM

08 Mar 2015 12:00 UTC to 15 Mar 2015 12:00 UTC

    date/time    lat    long     hPa   cat  kts
2015-03-08 12    7.5   168.9    1004         25          
2015-03-08 18    7.8   169.2    1000         30          
2015-03-09 00    8.1   169.6    1000         30          
2015-03-09 06    8.5   170.1     996         35          
2015-03-09 12    9.0   170.6     989    1    45          
2015-03-09 18    9.3   170.5     982    2    55          
2015-03-09 18    9.3   170.5     982    2    55          
2015-03-10 00    9.7   170.5     978    2    60          
2015-03-10 00    9.7   170.5     978    2    60          
2015-03-10 06   10.2   170.5     974    2    65          
2015-03-10 06   10.2   170.5     974    2    65          
2015-03-10 12   10.6   170.1     967    3    75          
2015-03-10 12   10.6   170.1     967    3    75          
2015-03-10 12   10.6   170.1     967    3    75          
2015-03-10 18   10.8   170.0     959    3    85          
2015-03-10 18   10.8   170.0     959    3    85          
2015-03-10 18   10.8   170.0     959    3    85          
2015-03-10 21   10.9   169.6     959    3    85          
2015-03-10 21   10.9   169.6     959    3    85          
2015-03-10 21   10.9   169.6     959    3    85          
2015-03-11 00   11.0   169.7     948    4   100          
2015-03-11 00   11.0   169.7     948    4   100          
2015-03-11 00   11.0   169.7     948    4   100          
2015-03-11 06   11.0   169.8     944    4   105          
2015-03-11 06   11.0   169.8     944    4   105          
2015-03-11 06   11.0   169.8     944    4   105          
2015-03-11 12   11.3   170.0     941    4   110          
2015-03-11 12   11.3   170.0     941    4   110          
2015-03-11 12   11.3   170.0     941    4   110          
2015-03-11 18   11.9   170.2     937    4   115          
2015-03-11 18   11.9   170.2     937    4   115          
2015-03-11 18   11.9   170.2     937    4   115          
2015-03-12 00   12.7   170.1     933    4   120          
2015-03-12 00   12.7   170.1     933    4   120          
2015-03-12 00   12.7   170.1     933    4   120          
2015-03-12 06   13.4   170.1     929    5   125          
2015-03-12 06   13.4   170.1     929    5   125          
2015-03-12 06   13.4   170.1     929    5   125          
2015-03-12 12   14.3   169.7     922    5   135          
2015-03-12 12   14.3   169.7     922    5   135          
2015-03-12 12   14.3   169.7     922    5   135          
2015-03-12 18   15.0   169.3     918    5   140          
2015-03-12 18   15.0   169.3     918    5   140          
2015-03-12 18   15.0   169.3     918    5   140          
2015-03-13 00   15.9   169.0     918    5   140          
2015-03-13 00   15.9   169.0     918    5   140          
2015-03-13 00   15.9   169.0     918    5   140          
2015-03-13 06   16.6   168.7     911    5   150          
2015-03-13 06   16.6   168.7     911    5   150          
2015-03-13 06   16.6   168.7     911    5   150          
2015-03-13 12   17.6   168.7     911    5   150          
2015-03-13 12   17.6   168.7     911    5   150          
2015-03-13 12   17.6   168.7     911    5   150          
2015-03-13 18   19.0   168.9     914    5   145          
2015-03-13 18   19.0   168.9     914    5   145          
2015-03-13 18   19.0   168.9     914    5   145          
2015-03-14 00   20.5   169.2     918    5   140          
2015-03-14 00   20.5   169.2     918    5   140          
2015-03-14 00   20.5   169.2     918    5   140          
2015-03-14 06   22.3   170.1     922    5   135          
2015-03-14 06   22.3   170.1     922    5   135          
2015-03-14 06   22.3   170.1     922    5   135          
2015-03-14 12   24.6   171.1     929    5   125          
2015-03-14 12   24.6   171.1     929    5   125          
2015-03-14 12   24.6   171.1     929    5   125          
2015-03-14 18   27.0   172.7     937    4   115          
2015-03-14 18   27.0   172.7     937    4   115          
2015-03-14 18   27.0   172.7     937    4   115          
2015-03-15 00   30.0   174.8     952    3    95          
2015-03-15 00   30.0   174.8     952    3    95          
2015-03-15 00   30.0   174.8     952    3    95          
2015-03-15 06   31.8   176.7     974    2    65          
2015-03-15 06   31.8   176.7     974    2    65          
2015-03-15 06   31.8   176.7     974    2    65          
2015-03-15 12   33.8   178.5     982    2    55          
2015-03-15 12   33.8   178.5     982    2    55          
Winds are 1-min average.

Tropical cyclone tracks developed by Michael Bath using data from the Joint Typhoon Warning Centre Best Tracks and Google Maps.


[Australian Severe Weather index] [Copyright Notice] [Email Contacts] [Search This Site] [Privacy Policy]
Document: tropical_cyclone_pam.htm Updated: 28 June 2017